New Augusta, Mississippi
Current Conditions -  °F | °C
As of 7:53 PM on Saturday 20 Dec 2014 (Local Time) from KHBG Reporting Station
Overcast Overcast  
Wind Chill: 52°   Ceiling: 2200
Heat Index: 52°   Visibility: 10mi
Dew Point: 45°   Wind: 7mph
Humidity: 77%   Direction: 20°NNE
Pressure: 30.17"   Gusts: NA
Location:  31.2°N, 89.03°W
Report Text: KHBG 210153Z AUTO 02006KT 10SM OVC022 11/07 A3017 RMK AO2 SLP217 T01110072
Loading
Personal Weather Stations






























Interactive Weather Map New forecast layout! Learn more

10-Day Weather Forecast

Advertisements
Track Severe Weather on mobile